Fort Mc Coy, Florida
Current Conditions -  °F | °C
As of 7:15 PM on Thursday 27 Nov 2014 (Local Time) from K28J Reporting Station
Clear Clear  
Wind Chill: 50°   Ceiling: Unl
Heat Index: 50°   Visibility: 10mi
Dew Point: 36°   Wind: 6mph
Humidity: 58%   Direction: 330°NNW
Pressure: 30.28"   Gusts: NA
Location:  29.3142°N, 81.8267°W
Report Text: K28J 280015Z AUTO 33005KT 10SM CLR 10/02 A3028 RMK AO2
Loading
Personal Weather Stations






























Interactive Weather Map New forecast layout! Learn more

10-Day Weather Forecast

Advertisements
Track Severe Weather on mobile